East Muncy, Pennsylvania
Current Conditions -  °F | °C
As of 12:54 AM on Sunday 23 Nov 2014 (Local Time) from KIPT Reporting Station
Broken Clouds Broken Clouds  
Wind Chill: 27°   Ceiling: 9500
Heat Index: 32°   Visibility: 7mi
Dew Point: 28°   Wind: 5mph
Humidity: 85%   Direction: 270°W
Pressure: 30.15"   Gusts: NA
Location:  41.225°N, 76.7388°W
Report Text: KIPT 230554Z AUTO 27004KT 7SM BKN095 00/M02 A3015 RMK AO2 SLP216 60000 T00001022 10017 20000 56005
Loading
Personal Weather Stations






























Interactive Weather Map New forecast layout! Learn more

10-Day Weather Forecast

Advertisements
Track Severe Weather on mobile